sensor_id;sensor_type;location;lat;lon;timestamp;P1;durP1;ratioP1;P2;durP2;ratioP2
75272;SDS011;63869;52.344;16.928;2022-12-18T00:02:01;38.63;;;13.00;;
75272;SDS011;63869;52.344;16.928;2022-12-18T00:04:27;45.53;;;12.75;;
75272;SDS011;63869;52.344;16.928;2022-12-18T00:06:52;38.28;;;12.15;;
75272;SDS011;63869;52.344;16.928;2022-12-18T00:09:18;37.72;;;12.02;;
75272;SDS011;63869;52.344;16.928;2022-12-18T00:11:43;38.72;;;12.05;;
75272;SDS011;63869;52.344;16.928;2022-12-18T00:14:09;37.72;;;13.07;;
75272;SDS011;63869;52.344;16.928;2022-12-18T00:16:36;39.58;;;12.93;;
75272;SDS011;63869;52.344;16.928;2022-12-18T00:19:02;36.13;;;12.57;;
75272;SDS011;63869;52.344;16.928;2022-12-18T00:21:29;48.58;;;12.73;;
75272;SDS011;63869;52.344;16.928;2022-12-18T00:23:55;42.85;;;13.98;;
75272;SDS011;63869;52.344;16.928;2022-12-18T00:26:24;38.80;;;12.20;;
75272;SDS011;63869;52.344;16.928;2022-12-18T00:28:52;40.58;;;13.38;;
75272;SDS011;63869;52.344;16.928;2022-12-18T00:31:19;38.88;;;12.60;;
75272;SDS011;63869;52.344;16.928;2022-12-18T00:33:46;41.10;;;11.57;;
75272;SDS011;63869;52.344;16.928;2022-12-18T00:36:18;37.85;;;12.20;;
75272;SDS011;63869;52.344;16.928;2022-12-18T00:38:45;42.08;;;13.00;;
75272;SDS011;63869;52.344;16.928;2022-12-18T00:41:12;43.17;;;12.73;;
75272;SDS011;63869;52.344;16.928;2022-12-18T00:43:39;38.70;;;12.18;;
75272;SDS011;63869;52.344;16.928;2022-12-18T00:46:04;37.30;;;11.93;;
75272;SDS011;63869;52.344;16.928;2022-12-18T00:48:30;35.40;;;11.90;;
75272;SDS011;63869;52.344;16.928;2022-12-18T00:50:55;44.72;;;12.52;;
75272;SDS011;63869;52.344;16.928;2022-12-18T00:53:21;40.90;;;12.13;;
75272;SDS011;63869;52.344;16.928;2022-12-18T00:55:47;34.70;;;11.75;;
75272;SDS011;63869;52.344;16.928;2022-12-18T00:58:13;38.88;;;12.13;;
75272;SDS011;63869;52.344;16.928;2022-12-18T01:00:40;34.67;;;12.00;;
75272;SDS011;63869;52.344;16.928;2022-12-18T01:03:05;39.97;;;13.10;;
75272;SDS011;63869;52.344;16.928;2022-12-18T01:05:31;35.30;;;11.77;;
75272;SDS011;63869;52.344;16.928;2022-12-18T01:07:57;34.13;;;11.15;;
75272;SDS011;63869;52.344;16.928;2022-12-18T01:10:23;40.28;;;12.30;;
75272;SDS011;63869;52.344;16.928;2022-12-18T01:12:49;40.10;;;12.05;;
75272;SDS011;63869;52.344;16.928;2022-12-18T01:15:15;40.60;;;12.63;;
75272;SDS011;63869;52.344;16.928;2022-12-18T01:17:41;35.65;;;11.27;;
75272;SDS011;63869;52.344;16.928;2022-12-18T01:20:07;40.40;;;12.30;;
75272;SDS011;63869;52.344;16.928;2022-12-18T01:22:34;35.60;;;11.60;;
75272;SDS011;63869;52.344;16.928;2022-12-18T01:25:00;32.75;;;10.27;;
75272;SDS011;63869;52.344;16.928;2022-12-18T01:27:25;38.15;;;10.45;;
75272;SDS011;63869;52.344;16.928;2022-12-18T01:29:51;30.05;;;10.15;;
75272;SDS011;63869;52.344;16.928;2022-12-18T01:32:16;35.28;;;11.98;;
75272;SDS011;63869;52.344;16.928;2022-12-18T01:34:41;35.65;;;10.32;;
75272;SDS011;63869;52.344;16.928;2022-12-18T01:37:07;31.45;;;11.15;;
75272;SDS011;63869;52.344;16.928;2022-12-18T01:39:32;33.25;;;9.95;;
75272;SDS011;63869;52.344;16.928;2022-12-18T01:41:58;37.40;;;10.52;;
75272;SDS011;63869;52.344;16.928;2022-12-18T01:49:54;35.13;;;10.48;;
75272;SDS011;63869;52.344;16.928;2022-12-18T01:52:20;34.88;;;10.98;;
75272;SDS011;63869;52.344;16.928;2022-12-18T01:54:47;29.02;;;9.18;;
75272;SDS011;63869;52.344;16.928;2022-12-18T01:57:15;31.85;;;10.15;;
75272;SDS011;63869;52.344;16.928;2022-12-18T01:59:40;35.05;;;10.40;;
75272;SDS011;63869;52.344;16.928;2022-12-18T02:02:07;34.55;;;10.65;;
75272;SDS011;63869;52.344;16.928;2022-12-18T02:04:32;36.10;;;10.55;;
75272;SDS011;63869;52.344;16.928;2022-12-18T02:07:09;36.10;;;10.15;;
75272;SDS011;63869;52.344;16.928;2022-12-18T02:09:44;39.72;;;11.30;;
75272;SDS011;63869;52.344;16.928;2022-12-18T02:12:25;36.20;;;10.55;;
75272;SDS011;63869;52.344;16.928;2022-12-18T02:15:00;33.72;;;9.95;;
75272;SDS011;63869;52.344;16.928;2022-12-18T02:20:19;37.88;;;11.25;;
75272;SDS011;63869;52.344;16.928;2022-12-18T02:26:05;31.90;;;10.87;;
75272;SDS011;63869;52.344;16.928;2022-12-18T02:29:18;37.08;;;10.45;;
75272;SDS011;63869;52.344;16.928;2022-12-18T02:31:50;32.63;;;9.90;;
75272;SDS011;63869;52.344;16.928;2022-12-18T02:34:18;38.30;;;12.05;;
75272;SDS011;63869;52.344;16.928;2022-12-18T02:36:45;33.72;;;10.85;;
75272;SDS011;63869;52.344;16.928;2022-12-18T02:39:13;35.83;;;11.35;;
75272;SDS011;63869;52.344;16.928;2022-12-18T02:41:40;38.53;;;11.40;;
75272;SDS011;63869;52.344;16.928;2022-12-18T02:44:10;38.38;;;10.70;;
75272;SDS011;63869;52.344;16.928;2022-12-18T02:46:37;32.65;;;10.77;;
75272;SDS011;63869;52.344;16.928;2022-12-18T02:49:14;33.72;;;10.57;;
75272;SDS011;63869;52.344;16.928;2022-12-18T02:51:50;37.75;;;10.82;;
75272;SDS011;63869;52.344;16.928;2022-12-18T02:56:58;45.20;;;11.80;;
75272;SDS011;63869;52.344;16.928;2022-12-18T02:59:36;40.30;;;11.30;;
75272;SDS011;63869;52.344;16.928;2022-12-18T03:02:21;37.50;;;11.82;;
75272;SDS011;63869;52.344;16.928;2022-12-18T03:05:08;36.93;;;12.23;;
75272;SDS011;63869;52.344;16.928;2022-12-18T03:07:41;32.17;;;11.68;;
75272;SDS011;63869;52.344;16.928;2022-12-18T03:12:40;33.88;;;10.73;;
75272;SDS011;63869;52.344;16.928;2022-12-18T03:17:44;37.03;;;10.60;;
75272;SDS011;63869;52.344;16.928;2022-12-18T03:20:14;35.75;;;11.05;;
75272;SDS011;63869;52.344;16.928;2022-12-18T03:22:44;36.08;;;11.25;;
75272;SDS011;63869;52.344;16.928;2022-12-18T03:25:14;36.33;;;11.55;;
75272;SDS011;63869;52.344;16.928;2022-12-18T03:27:43;39.63;;;11.07;;
75272;SDS011;63869;52.344;16.928;2022-12-18T03:30:13;40.78;;;12.05;;
75272;SDS011;63869;52.344;16.928;2022-12-18T03:32:41;42.17;;;11.32;;
75272;SDS011;63869;52.344;16.928;2022-12-18T03:35:12;45.55;;;12.35;;
75272;SDS011;63869;52.344;16.928;2022-12-18T03:37:44;43.50;;;13.23;;
75272;SDS011;63869;52.344;16.928;2022-12-18T03:40:10;44.65;;;12.48;;
75272;SDS011;63869;52.344;16.928;2022-12-18T03:42:42;43.20;;;13.85;;
75272;SDS011;63869;52.344;16.928;2022-12-18T03:48:01;40.05;;;12.50;;
75272;SDS011;63869;52.344;16.928;2022-12-18T03:50:49;43.08;;;12.27;;
75272;SDS011;63869;52.344;16.928;2022-12-18T03:53:33;35.10;;;11.50;;
75272;SDS011;63869;52.344;16.928;2022-12-18T03:56:06;42.05;;;12.48;;
75272;SDS011;63869;52.344;16.928;2022-12-18T03:58:34;41.72;;;10.88;;
75272;SDS011;63869;52.344;16.928;2022-12-18T04:01:03;40.47;;;11.95;;
75272;SDS011;63869;52.344;16.928;2022-12-18T04:03:34;40.03;;;12.17;;
75272;SDS011;63869;52.344;16.928;2022-12-18T04:06:01;33.95;;;10.15;;
75272;SDS011;63869;52.344;16.928;2022-12-18T04:08:27;34.22;;;10.60;;
75272;SDS011;63869;52.344;16.928;2022-12-18T04:10:54;32.22;;;10.07;;
75272;SDS011;63869;52.344;16.928;2022-12-18T04:13:38;37.88;;;11.77;;
75272;SDS011;63869;52.344;16.928;2022-12-18T04:16:04;46.33;;;11.55;;
75272;SDS011;63869;52.344;16.928;2022-12-18T04:18:30;35.95;;;10.93;;
75272;SDS011;63869;52.344;16.928;2022-12-18T04:20:55;32.78;;;10.80;;
75272;SDS011;63869;52.344;16.928;2022-12-18T04:23:21;39.83;;;11.30;;
75272;SDS011;63869;52.344;16.928;2022-12-18T04:25:46;41.45;;;12.13;;
75272;SDS011;63869;52.344;16.928;2022-12-18T04:28:12;39.95;;;11.27;;
75272;SDS011;63869;52.344;16.928;2022-12-18T04:30:37;37.40;;;11.85;;
75272;SDS011;63869;52.344;16.928;2022-12-18T04:33:03;36.20;;;11.95;;
75272;SDS011;63869;52.344;16.928;2022-12-18T04:35:28;38.03;;;11.85;;
75272;SDS011;63869;52.344;16.928;2022-12-18T04:37:54;38.20;;;12.30;;
75272;SDS011;63869;52.344;16.928;2022-12-18T04:40:19;36.30;;;10.88;;
75272;SDS011;63869;52.344;16.928;2022-12-18T04:42:44;36.90;;;11.50;;
75272;SDS011;63869;52.344;16.928;2022-12-18T04:45:10;33.25;;;10.90;;
75272;SDS011;63869;52.344;16.928;2022-12-18T04:47:35;34.88;;;10.95;;
75272;SDS011;63869;52.344;16.928;2022-12-18T04:50:00;38.10;;;11.82;;
75272;SDS011;63869;52.344;16.928;2022-12-18T04:52:25;36.75;;;10.10;;
75272;SDS011;63869;52.344;16.928;2022-12-18T04:54:51;36.22;;;10.93;;
75272;SDS011;63869;52.344;16.928;2022-12-18T04:57:16;37.95;;;11.73;;
75272;SDS011;63869;52.344;16.928;2022-12-18T04:59:43;34.50;;;10.60;;
75272;SDS011;63869;52.344;16.928;2022-12-18T05:02:08;35.95;;;11.43;;
75272;SDS011;63869;52.344;16.928;2022-12-18T05:04:33;33.60;;;10.90;;
75272;SDS011;63869;52.344;16.928;2022-12-18T05:06:59;33.15;;;10.43;;
75272;SDS011;63869;52.344;16.928;2022-12-18T05:09:24;32.08;;;10.20;;
75272;SDS011;63869;52.344;16.928;2022-12-18T05:11:49;32.03;;;10.38;;
75272;SDS011;63869;52.344;16.928;2022-12-18T05:14:14;36.78;;;11.13;;
75272;SDS011;63869;52.344;16.928;2022-12-18T05:16:40;35.65;;;10.68;;
75272;SDS011;63869;52.344;16.928;2022-12-18T05:19:05;33.15;;;11.20;;
75272;SDS011;63869;52.344;16.928;2022-12-18T05:21:30;38.63;;;11.20;;
75272;SDS011;63869;52.344;16.928;2022-12-18T05:23:56;36.45;;;11.07;;
75272;SDS011;63869;52.344;16.928;2022-12-18T05:26:21;32.28;;;11.27;;
75272;SDS011;63869;52.344;16.928;2022-12-18T05:28:46;34.40;;;11.35;;
75272;SDS011;63869;52.344;16.928;2022-12-18T05:31:11;31.13;;;10.23;;
75272;SDS011;63869;52.344;16.928;2022-12-18T05:33:37;32.65;;;10.95;;
75272;SDS011;63869;52.344;16.928;2022-12-18T05:36:06;32.63;;;9.70;;
75272;SDS011;63869;52.344;16.928;2022-12-18T05:38:34;31.40;;;10.57;;
75272;SDS011;63869;52.344;16.928;2022-12-18T05:41:01;34.85;;;10.18;;
75272;SDS011;63869;52.344;16.928;2022-12-18T05:43:27;32.70;;;10.52;;
75272;SDS011;63869;52.344;16.928;2022-12-18T05:45:53;32.25;;;9.95;;
75272;SDS011;63869;52.344;16.928;2022-12-18T05:48:18;33.22;;;10.27;;
75272;SDS011;63869;52.344;16.928;2022-12-18T05:50:45;31.15;;;10.13;;
75272;SDS011;63869;52.344;16.928;2022-12-18T05:53:11;35.20;;;10.27;;
75272;SDS011;63869;52.344;16.928;2022-12-18T05:55:38;31.55;;;9.85;;
75272;SDS011;63869;52.344;16.928;2022-12-18T05:58:05;33.20;;;10.95;;
75272;SDS011;63869;52.344;16.928;2022-12-18T06:00:32;34.90;;;9.75;;
75272;SDS011;63869;52.344;16.928;2022-12-18T06:03:00;27.35;;;9.30;;
75272;SDS011;63869;52.344;16.928;2022-12-18T06:05:25;34.35;;;9.55;;
75272;SDS011;63869;52.344;16.928;2022-12-18T06:07:51;32.97;;;9.57;;
75272;SDS011;63869;52.344;16.928;2022-12-18T06:10:16;32.80;;;9.95;;
75272;SDS011;63869;52.344;16.928;2022-12-18T06:12:42;32.65;;;10.35;;
75272;SDS011;63869;52.344;16.928;2022-12-18T06:15:07;30.80;;;9.50;;
75272;SDS011;63869;52.344;16.928;2022-12-18T06:17:33;35.08;;;10.30;;
75272;SDS011;63869;52.344;16.928;2022-12-18T06:19:59;39.47;;;10.85;;
75272;SDS011;63869;52.344;16.928;2022-12-18T06:22:24;31.17;;;10.73;;
75272;SDS011;63869;52.344;16.928;2022-12-18T06:24:50;32.85;;;9.93;;
75272;SDS011;63869;52.344;16.928;2022-12-18T06:27:15;37.65;;;12.43;;
75272;SDS011;63869;52.344;16.928;2022-12-18T06:29:41;34.38;;;10.90;;
75272;SDS011;63869;52.344;16.928;2022-12-18T06:32:06;38.35;;;10.95;;
75272;SDS011;63869;52.344;16.928;2022-12-18T06:34:32;41.83;;;11.73;;
75272;SDS011;63869;52.344;16.928;2022-12-18T06:36:58;35.90;;;11.15;;
75272;SDS011;63869;52.344;16.928;2022-12-18T06:39:24;42.30;;;11.73;;
75272;SDS011;63869;52.344;16.928;2022-12-18T06:41:51;38.60;;;11.57;;
75272;SDS011;63869;52.344;16.928;2022-12-18T06:44:17;41.08;;;12.00;;
75272;SDS011;63869;52.344;16.928;2022-12-18T06:46:42;43.45;;;12.20;;
75272;SDS011;63869;52.344;16.928;2022-12-18T06:49:07;50.58;;;14.10;;
75272;SDS011;63869;52.344;16.928;2022-12-18T06:51:34;50.90;;;14.75;;
75272;SDS011;63869;52.344;16.928;2022-12-18T06:53:59;53.70;;;14.85;;
75272;SDS011;63869;52.344;16.928;2022-12-18T06:56:24;47.78;;;14.00;;
75272;SDS011;63869;52.344;16.928;2022-12-18T06:58:50;51.60;;;14.82;;
75272;SDS011;63869;52.344;16.928;2022-12-18T07:01:15;41.50;;;13.27;;
75272;SDS011;63869;52.344;16.928;2022-12-18T07:03:40;44.58;;;14.43;;
75272;SDS011;63869;52.344;16.928;2022-12-18T07:06:11;53.10;;;16.05;;
75272;SDS011;63869;52.344;16.928;2022-12-18T07:08:43;50.03;;;15.57;;
75272;SDS011;63869;52.344;16.928;2022-12-18T07:11:09;42.85;;;12.70;;
75272;SDS011;63869;52.344;16.928;2022-12-18T07:13:34;52.90;;;14.00;;
75272;SDS011;63869;52.344;16.928;2022-12-18T07:16:09;53.55;;;12.68;;
75272;SDS011;63869;52.344;16.928;2022-12-18T07:18:37;42.88;;;13.15;;
75272;SDS011;63869;52.344;16.928;2022-12-18T07:21:03;45.97;;;12.38;;
75272;SDS011;63869;52.344;16.928;2022-12-18T07:23:29;46.47;;;13.95;;
75272;SDS011;63869;52.344;16.928;2022-12-18T07:25:55;44.95;;;13.23;;
75272;SDS011;63869;52.344;16.928;2022-12-18T07:28:20;65.57;;;20.00;;
75272;SDS011;63869;52.344;16.928;2022-12-18T07:30:45;50.70;;;14.00;;
75272;SDS011;63869;52.344;16.928;2022-12-18T07:33:10;48.05;;;11.85;;
75272;SDS011;63869;52.344;16.928;2022-12-18T07:35:36;42.63;;;12.35;;
75272;SDS011;63869;52.344;16.928;2022-12-18T07:38:01;65.10;;;14.52;;
75272;SDS011;63869;52.344;16.928;2022-12-18T07:40:26;39.78;;;11.95;;
75272;SDS011;63869;52.344;16.928;2022-12-18T07:42:51;68.57;;;17.90;;
75272;SDS011;63869;52.344;16.928;2022-12-18T07:45:17;40.38;;;11.70;;
75272;SDS011;63869;52.344;16.928;2022-12-18T07:47:42;41.25;;;11.98;;
75272;SDS011;63869;52.344;16.928;2022-12-18T07:50:07;45.83;;;14.68;;
75272;SDS011;63869;52.344;16.928;2022-12-18T07:52:33;37.15;;;11.98;;
75272;SDS011;63869;52.344;16.928;2022-12-18T07:54:58;37.75;;;10.77;;
75272;SDS011;63869;52.344;16.928;2022-12-18T07:57:23;36.92;;;12.25;;
75272;SDS011;63869;52.344;16.928;2022-12-18T07:59:49;43.17;;;11.32;;
75272;SDS011;63869;52.344;16.928;2022-12-18T08:02:14;36.42;;;11.70;;
75272;SDS011;63869;52.344;16.928;2022-12-18T08:04:39;37.60;;;12.40;;
75272;SDS011;63869;52.344;16.928;2022-12-18T08:07:04;35.85;;;12.82;;
75272;SDS011;63869;52.344;16.928;2022-12-18T08:09:30;39.05;;;12.73;;
75272;SDS011;63869;52.344;16.928;2022-12-18T08:11:55;33.58;;;11.15;;
75272;SDS011;63869;52.344;16.928;2022-12-18T08:14:20;38.13;;;10.88;;
75272;SDS011;63869;52.344;16.928;2022-12-18T08:16:46;34.90;;;10.63;;
75272;SDS011;63869;52.344;16.928;2022-12-18T08:19:11;32.65;;;9.88;;
75272;SDS011;63869;52.344;16.928;2022-12-18T08:21:37;49.03;;;14.23;;
75272;SDS011;63869;52.344;16.928;2022-12-18T08:24:02;41.15;;;14.25;;
75272;SDS011;63869;52.344;16.928;2022-12-18T08:26:29;38.17;;;12.80;;
75272;SDS011;63869;52.344;16.928;2022-12-18T08:28:55;49.30;;;15.00;;
75272;SDS011;63869;52.344;16.928;2022-12-18T10:00:47;40.63;;;15.13;;
75272;SDS011;63869;52.344;16.928;2022-12-18T10:03:16;47.50;;;20.98;;
75272;SDS011;63869;52.344;16.928;2022-12-18T10:05:45;39.92;;;14.23;;
75272;SDS011;63869;52.344;16.928;2022-12-18T10:08:22;34.60;;;14.57;;
75272;SDS011;63869;52.344;16.928;2022-12-18T10:11:21;42.38;;;15.63;;
75272;SDS011;63869;52.344;16.928;2022-12-18T10:13:53;56.65;;;19.25;;
75272;SDS011;63869;52.344;16.928;2022-12-18T10:27:17;65.28;;;19.65;;
75272;SDS011;63869;52.344;16.928;2022-12-18T10:29:44;63.42;;;20.88;;
75272;SDS011;63869;52.344;16.928;2022-12-18T10:32:18;44.55;;;15.75;;
75272;SDS011;63869;52.344;16.928;2022-12-18T10:34:49;37.03;;;14.13;;
75272;SDS011;63869;52.344;16.928;2022-12-18T10:37:19;35.05;;;12.10;;
75272;SDS011;63869;52.344;16.928;2022-12-18T10:40:04;34.95;;;13.85;;
75272;SDS011;63869;52.344;16.928;2022-12-18T10:42:33;38.55;;;14.13;;
75272;SDS011;63869;52.344;16.928;2022-12-18T10:45:08;35.65;;;12.50;;
75272;SDS011;63869;52.344;16.928;2022-12-18T10:47:43;31.83;;;12.02;;
75272;SDS011;63869;52.344;16.928;2022-12-18T10:50:24;42.30;;;15.68;;
75272;SDS011;63869;52.344;16.928;2022-12-18T10:52:54;34.42;;;13.10;;
75272;SDS011;63869;52.344;16.928;2022-12-18T10:55:24;36.60;;;15.25;;
75272;SDS011;63869;52.344;16.928;2022-12-18T10:57:56;38.00;;;14.30;;
75272;SDS011;63869;52.344;16.928;2022-12-18T11:01:01;44.28;;;16.40;;
75272;SDS011;63869;52.344;16.928;2022-12-18T11:03:32;35.78;;;13.40;;
75272;SDS011;63869;52.344;16.928;2022-12-18T11:06:03;78.55;;;25.38;;
75272;SDS011;63869;52.344;16.928;2022-12-18T11:08:29;45.63;;;14.93;;
75272;SDS011;63869;52.344;16.928;2022-12-18T11:10:54;32.45;;;12.15;;
75272;SDS011;63869;52.344;16.928;2022-12-18T11:13:20;43.47;;;13.95;;
75272;SDS011;63869;52.344;16.928;2022-12-18T11:15:48;40.13;;;14.85;;
75272;SDS011;63869;52.344;16.928;2022-12-18T11:18:16;47.67;;;17.27;;
75272;SDS011;63869;52.344;16.928;2022-12-18T11:20:49;37.05;;;15.23;;
75272;SDS011;63869;52.344;16.928;2022-12-18T11:23:16;43.47;;;14.65;;
75272;SDS011;63869;52.344;16.928;2022-12-18T11:25:50;30.55;;;11.85;;
75272;SDS011;63869;52.344;16.928;2022-12-18T11:33:42;33.58;;;11.45;;
75272;SDS011;63869;52.344;16.928;2022-12-18T11:36:11;29.13;;;11.10;;
75272;SDS011;63869;52.344;16.928;2022-12-18T11:38:39;42.20;;;14.73;;
75272;SDS011;63869;52.344;16.928;2022-12-18T11:46:23;46.15;;;20.30;;
75272;SDS011;63869;52.344;16.928;2022-12-18T11:49:06;71.60;;;29.20;;
75272;SDS011;63869;52.344;16.928;2022-12-18T11:51:54;25.33;;;10.73;;
75272;SDS011;63869;52.344;16.928;2022-12-18T11:54:25;29.27;;;11.15;;
75272;SDS011;63869;52.344;16.928;2022-12-18T11:56:51;33.65;;;12.93;;
75272;SDS011;63869;52.344;16.928;2022-12-18T12:01:51;34.63;;;12.52;;
75272;SDS011;63869;52.344;16.928;2022-12-18T12:18:31;38.50;;;16.80;;
75272;SDS011;63869;52.344;16.928;2022-12-18T12:21:14;43.70;;;16.05;;
75272;SDS011;63869;52.344;16.928;2022-12-18T12:29:49;47.22;;;17.02;;
75272;SDS011;63869;52.344;16.928;2022-12-18T12:38:04;146.90;;;49.78;;
75272;SDS011;63869;52.344;16.928;2022-12-18T12:40:44;135.90;;;45.10;;
75272;SDS011;63869;52.344;16.928;2022-12-18T12:48:44;32.95;;;12.82;;
75272;SDS011;63869;52.344;16.928;2022-12-18T12:51:15;53.70;;;22.55;;
75272;SDS011;63869;52.344;16.928;2022-12-18T12:53:43;30.27;;;12.23;;
75272;SDS011;63869;52.344;16.928;2022-12-18T12:56:10;59.22;;;20.52;;
75272;SDS011;63869;52.344;16.928;2022-12-18T12:58:43;31.83;;;11.07;;
75272;SDS011;63869;52.344;16.928;2022-12-18T13:04:21;52.83;;;20.58;;
75272;SDS011;63869;52.344;16.928;2022-12-18T13:07:13;36.83;;;14.70;;
75272;SDS011;63869;52.344;16.928;2022-12-18T13:12:56;35.38;;;12.30;;
75272;SDS011;63869;52.344;16.928;2022-12-18T13:18:04;55.78;;;19.67;;
75272;SDS011;63869;52.344;16.928;2022-12-18T13:20:36;148.93;;;46.42;;
75272;SDS011;63869;52.344;16.928;2022-12-18T13:25:54;58.33;;;23.88;;
75272;SDS011;63869;52.344;16.928;2022-12-18T13:30:58;58.00;;;23.15;;
75272;SDS011;63869;52.344;16.928;2022-12-18T13:38:36;36.25;;;14.32;;
75272;SDS011;63869;52.344;16.928;2022-12-18T13:43:48;35.25;;;13.70;;
75272;SDS011;63869;52.344;16.928;2022-12-18T13:51:34;47.90;;;17.90;;
75272;SDS011;63869;52.344;16.928;2022-12-18T13:54:01;42.67;;;16.02;;
75272;SDS011;63869;52.344;16.928;2022-12-18T13:56:56;54.08;;;19.65;;
75272;SDS011;63869;52.344;16.928;2022-12-18T13:59:23;61.10;;;23.08;;
75272;SDS011;63869;52.344;16.928;2022-12-18T14:02:09;58.45;;;18.50;;
75272;SDS011;63869;52.344;16.928;2022-12-18T14:04:37;38.83;;;13.40;;
75272;SDS011;63869;52.344;16.928;2022-12-18T14:09:31;43.05;;;14.57;;
75272;SDS011;63869;52.344;16.928;2022-12-18T14:12:01;46.13;;;14.52;;
75272;SDS011;63869;52.344;16.928;2022-12-18T14:14:56;45.25;;;16.02;;
75272;SDS011;63869;52.344;16.928;2022-12-18T14:17:22;64.72;;;19.35;;
75272;SDS011;63869;52.344;16.928;2022-12-18T14:19:48;62.35;;;17.83;;
75272;SDS011;63869;52.344;16.928;2022-12-18T14:22:19;38.65;;;13.70;;
75272;SDS011;63869;52.344;16.928;2022-12-18T14:25:05;42.03;;;14.75;;
75272;SDS011;63869;52.344;16.928;2022-12-18T14:28:14;75.40;;;27.27;;
75272;SDS011;63869;52.344;16.928;2022-12-18T14:30:32;44.78;;;17.13;;
75272;SDS011;63869;52.344;16.928;2022-12-18T14:33:00;37.65;;;14.93;;
75272;SDS011;63869;52.344;16.928;2022-12-18T14:35:27;55.47;;;18.08;;
75272;SDS011;63869;52.344;16.928;2022-12-18T14:37:52;45.72;;;15.52;;
75272;SDS011;63869;52.344;16.928;2022-12-18T14:40:17;53.05;;;18.83;;
75272;SDS011;63869;52.344;16.928;2022-12-18T14:42:43;54.90;;;20.02;;
75272;SDS011;63869;52.344;16.928;2022-12-18T14:45:31;50.80;;;19.00;;
75272;SDS011;63869;52.344;16.928;2022-12-18T14:48:16;38.85;;;14.15;;
75272;SDS011;63869;52.344;16.928;2022-12-18T14:50:44;40.72;;;15.05;;
75272;SDS011;63869;52.344;16.928;2022-12-18T14:53:20;49.67;;;15.93;;
75272;SDS011;63869;52.344;16.928;2022-12-18T14:55:51;42.55;;;15.70;;
75272;SDS011;63869;52.344;16.928;2022-12-18T14:58:16;45.17;;;15.70;;
75272;SDS011;63869;52.344;16.928;2022-12-18T15:00:42;38.60;;;13.70;;
75272;SDS011;63869;52.344;16.928;2022-12-18T15:03:08;42.10;;;14.02;;
75272;SDS011;63869;52.344;16.928;2022-12-18T15:05:35;39.08;;;13.88;;
75272;SDS011;63869;52.344;16.928;2022-12-18T15:08:01;51.95;;;15.80;;
75272;SDS011;63869;52.344;16.928;2022-12-18T15:10:31;37.05;;;12.85;;
75272;SDS011;63869;52.344;16.928;2022-12-18T15:20:32;65.93;;;22.20;;
75272;SDS011;63869;52.344;16.928;2022-12-18T15:23:05;61.90;;;22.85;;
75272;SDS011;63869;52.344;16.928;2022-12-18T15:25:37;46.30;;;19.70;;
75272;SDS011;63869;52.344;16.928;2022-12-18T15:28:03;51.90;;;20.05;;
75272;SDS011;63869;52.344;16.928;2022-12-18T15:30:40;48.47;;;18.02;;
75272;SDS011;63869;52.344;16.928;2022-12-18T15:33:33;53.28;;;18.40;;
75272;SDS011;63869;52.344;16.928;2022-12-18T15:36:00;49.80;;;19.30;;
75272;SDS011;63869;52.344;16.928;2022-12-18T15:38:28;42.63;;;16.80;;
75272;SDS011;63869;52.344;16.928;2022-12-18T15:40:53;64.43;;;22.90;;
75272;SDS011;63869;52.344;16.928;2022-12-18T15:43:22;51.72;;;20.40;;
75272;SDS011;63869;52.344;16.928;2022-12-18T15:46:02;57.38;;;21.33;;
75272;SDS011;63869;52.344;16.928;2022-12-18T15:48:36;54.67;;;19.83;;
75272;SDS011;63869;52.344;16.928;2022-12-18T15:51:05;57.55;;;22.83;;
75272;SDS011;63869;52.344;16.928;2022-12-18T15:53:35;62.75;;;23.48;;
75272;SDS011;63869;52.344;16.928;2022-12-18T15:56:00;51.05;;;19.80;;
75272;SDS011;63869;52.344;16.928;2022-12-18T15:58:44;48.40;;;17.92;;
75272;SDS011;63869;52.344;16.928;2022-12-18T16:01:10;51.53;;;18.88;;
75272;SDS011;63869;52.344;16.928;2022-12-18T16:03:36;49.38;;;20.13;;
75272;SDS011;63869;52.344;16.928;2022-12-18T16:06:01;55.47;;;22.77;;
75272;SDS011;63869;52.344;16.928;2022-12-18T16:08:28;48.30;;;16.10;;
75272;SDS011;63869;52.344;16.928;2022-12-18T16:10:54;40.13;;;17.23;;
75272;SDS011;63869;52.344;16.928;2022-12-18T16:13:20;43.05;;;17.13;;
75272;SDS011;63869;52.344;16.928;2022-12-18T16:15:46;40.00;;;16.08;;
75272;SDS011;63869;52.344;16.928;2022-12-18T16:18:12;42.45;;;17.92;;
75272;SDS011;63869;52.344;16.928;2022-12-18T16:20:37;38.55;;;15.98;;
75272;SDS011;63869;52.344;16.928;2022-12-18T16:23:03;42.47;;;15.60;;
75272;SDS011;63869;52.344;16.928;2022-12-18T16:25:28;36.80;;;15.13;;
75272;SDS011;63869;52.344;16.928;2022-12-18T16:27:54;44.22;;;15.50;;
75272;SDS011;63869;52.344;16.928;2022-12-18T16:30:22;40.63;;;14.77;;
75272;SDS011;63869;52.344;16.928;2022-12-18T16:32:52;43.20;;;15.05;;
75272;SDS011;63869;52.344;16.928;2022-12-18T16:35:18;41.05;;;16.48;;
75272;SDS011;63869;52.344;16.928;2022-12-18T16:37:44;42.78;;;16.42;;
75272;SDS011;63869;52.344;16.928;2022-12-18T16:40:10;54.67;;;18.60;;
75272;SDS011;63869;52.344;16.928;2022-12-18T16:42:38;47.05;;;16.67;;
75272;SDS011;63869;52.344;16.928;2022-12-18T16:45:05;52.83;;;20.00;;
75272;SDS011;63869;52.344;16.928;2022-12-18T16:47:31;41.90;;;16.45;;
75272;SDS011;63869;52.344;16.928;2022-12-18T16:49:57;43.60;;;16.50;;
75272;SDS011;63869;52.344;16.928;2022-12-18T16:52:22;44.83;;;16.35;;
75272;SDS011;63869;52.344;16.928;2022-12-18T16:54:48;43.08;;;16.85;;
75272;SDS011;63869;52.344;16.928;2022-12-18T16:57:14;48.72;;;17.63;;
75272;SDS011;63869;52.344;16.928;2022-12-18T16:59:41;47.83;;;16.83;;
75272;SDS011;63869;52.344;16.928;2022-12-18T17:02:13;44.75;;;17.25;;
75272;SDS011;63869;52.344;16.928;2022-12-18T17:04:43;60.38;;;22.75;;
75272;SDS011;63869;52.344;16.928;2022-12-18T17:07:09;59.88;;;24.10;;
75272;SDS011;63869;52.344;16.928;2022-12-18T17:09:34;61.63;;;21.70;;
75272;SDS011;63869;52.344;16.928;2022-12-18T17:12:00;75.25;;;28.85;;
75272;SDS011;63869;52.344;16.928;2022-12-18T17:14:26;69.55;;;26.25;;
75272;SDS011;63869;52.344;16.928;2022-12-18T17:16:51;68.20;;;25.10;;
75272;SDS011;63869;52.344;16.928;2022-12-18T17:19:17;59.58;;;23.30;;
75272;SDS011;63869;52.344;16.928;2022-12-18T17:21:43;58.00;;;22.33;;
75272;SDS011;63869;52.344;16.928;2022-12-18T17:24:11;53.78;;;19.73;;
75272;SDS011;63869;52.344;16.928;2022-12-18T17:26:36;47.38;;;18.95;;
75272;SDS011;63869;52.344;16.928;2022-12-18T17:29:02;48.15;;;18.27;;
75272;SDS011;63869;52.344;16.928;2022-12-18T17:31:28;50.70;;;19.13;;
75272;SDS011;63869;52.344;16.928;2022-12-18T17:33:54;59.80;;;19.05;;
75272;SDS011;63869;52.344;16.928;2022-12-18T17:36:20;61.83;;;24.00;;
75272;SDS011;63869;52.344;16.928;2022-12-18T17:38:53;81.70;;;29.70;;
75272;SDS011;63869;52.344;16.928;2022-12-18T17:41:20;86.68;;;30.85;;
75272;SDS011;63869;52.344;16.928;2022-12-18T17:43:52;75.60;;;26.42;;